Archival Weather

Beaver Creek

Beaver Creek, Yukon (CYXQ)

Report from: Thursday, December 7, 2023 11:29 AM PST
Current time: Tuesday, April 23, 2024 1:38 AM PDT

Current weather – Weather history – Daily summaries
Weather forecast

Temperature-17.0°C (1.4°F)
Dew point-19.0°C (-2.2°F)
Winds Calm
Visibility25 mi. (40.2 km)
Clouds Ceiling: Overcast 7,500 ft. (2,286 m)
Altimeter29.57 in.Hg (1001 mB)
Relative humidity84 %
Density altitude-3,856 ft. (-1,175 m)
Sea-level pressure100.8 kPa (1008 mB, 29.76 in.Hg)
Remarks Special weather observation
Flight conditions Visual Meteorological Conditions
Raw dataSPECI CYXQ 071929Z 00000KT 25SM OVC075 M17/M19 A2957 RMK AC8 SLP079
An error has occurred. This application may no longer respond until reloaded. Reload 🗙